sensor_id;sensor_type;location;lat;lon;timestamp;temperature;humidity
8736;DHT22;4404;49.308;12.178;2024-01-30T00:00:35;11.70;65.90
8736;DHT22;4404;49.308;12.178;2024-01-30T00:02:36;11.70;65.80
8736;DHT22;4404;49.308;12.178;2024-01-30T00:04:38;11.70;65.80
8736;DHT22;4404;49.308;12.178;2024-01-30T00:06:40;11.70;66.60
8736;DHT22;4404;49.308;12.178;2024-01-30T00:08:44;11.70;66.00
8736;DHT22;4404;49.308;12.178;2024-01-30T00:10:47;11.70;66.00
8736;DHT22;4404;49.308;12.178;2024-01-30T00:12:48;11.70;66.00
8736;DHT22;4404;49.308;12.178;2024-01-30T00:14:50;11.70;66.00
8736;DHT22;4404;49.308;12.178;2024-01-30T00:16:52;11.80;66.10
8736;DHT22;4404;49.308;12.178;2024-01-30T00:18:54;11.70;66.00
8736;DHT22;4404;49.308;12.178;2024-01-30T00:20:56;11.70;66.00
8736;DHT22;4404;49.308;12.178;2024-01-30T00:22:58;11.70;66.00
8736;DHT22;4404;49.308;12.178;2024-01-30T00:25:02;11.70;65.90
8736;DHT22;4404;49.308;12.178;2024-01-30T00:27:04;11.70;66.00
8736;DHT22;4404;49.308;12.178;2024-01-30T00:29:06;11.70;66.00
8736;DHT22;4404;49.308;12.178;2024-01-30T00:31:09;11.70;66.00
8736;DHT22;4404;49.308;12.178;2024-01-30T00:33:12;11.70;66.00
8736;DHT22;4404;49.308;12.178;2024-01-30T00:35:15;11.70;66.00
8736;DHT22;4404;49.308;12.178;2024-01-30T00:37:17;11.70;65.90
8736;DHT22;4404;49.308;12.178;2024-01-30T00:39:19;11.70;66.00
8736;DHT22;4404;49.308;12.178;2024-01-30T00:41:22;11.60;65.80
8736;DHT22;4404;49.308;12.178;2024-01-30T00:43:24;11.70;65.80
8736;DHT22;4404;49.308;12.178;2024-01-30T00:45:25;11.70;65.90
8736;DHT22;4404;49.308;12.178;2024-01-30T00:47:27;11.70;65.80
8736;DHT22;4404;49.308;12.178;2024-01-30T00:49:29;11.70;65.80
8736;DHT22;4404;49.308;12.178;2024-01-30T00:51:31;11.60;65.70
8736;DHT22;4404;49.308;12.178;2024-01-30T00:53:33;11.70;65.80
8736;DHT22;4404;49.308;12.178;2024-01-30T00:55:35;11.70;65.80
8736;DHT22;4404;49.308;12.178;2024-01-30T00:57:38;11.70;65.80
8736;DHT22;4404;49.308;12.178;2024-01-30T00:59:40;11.60;65.60
8736;DHT22;4404;49.308;12.178;2024-01-30T01:01:41;11.60;65.70
8736;DHT22;4404;49.308;12.178;2024-01-30T01:03:43;11.70;65.70
8736;DHT22;4404;49.308;12.178;2024-01-30T01:05:45;11.70;65.70
8736;DHT22;4404;49.308;12.178;2024-01-30T01:07:47;11.70;65.80
8736;DHT22;4404;49.308;12.178;2024-01-30T01:09:48;11.60;65.70
8736;DHT22;4404;49.308;12.178;2024-01-30T01:11:50;11.60;65.70
8736;DHT22;4404;49.308;12.178;2024-01-30T01:13:54;11.70;65.80
8736;DHT22;4404;49.308;12.178;2024-01-30T01:15:56;11.70;65.80
8736;DHT22;4404;49.308;12.178;2024-01-30T01:17:58;11.70;65.80
8736;DHT22;4404;49.308;12.178;2024-01-30T01:20:00;11.60;65.70
8736;DHT22;4404;49.308;12.178;2024-01-30T01:22:02;11.70;65.80
8736;DHT22;4404;49.308;12.178;2024-01-30T01:24:04;11.60;66.40
8736;DHT22;4404;49.308;12.178;2024-01-30T01:26:07;11.70;65.80
8736;DHT22;4404;49.308;12.178;2024-01-30T01:28:10;11.70;65.80
8736;DHT22;4404;49.308;12.178;2024-01-30T01:30:13;11.60;65.70
8736;DHT22;4404;49.308;12.178;2024-01-30T01:32:21;11.60;65.70
8736;DHT22;4404;49.308;12.178;2024-01-30T01:34:24;11.60;65.60
8736;DHT22;4404;49.308;12.178;2024-01-30T01:36:26;11.60;65.70
8736;DHT22;4404;49.308;12.178;2024-01-30T01:38:28;11.60;65.70
8736;DHT22;4404;49.308;12.178;2024-01-30T01:40:29;11.60;65.60
8736;DHT22;4404;49.308;12.178;2024-01-30T01:42:31;11.60;65.60
8736;DHT22;4404;49.308;12.178;2024-01-30T01:44:32;11.60;65.60
8736;DHT22;4404;49.308;12.178;2024-01-30T01:46:36;11.60;65.60
8736;DHT22;4404;49.308;12.178;2024-01-30T01:48:37;11.60;65.60
8736;DHT22;4404;49.308;12.178;2024-01-30T01:50:41;11.60;65.60
8736;DHT22;4404;49.308;12.178;2024-01-30T01:52:45;11.60;65.60
8736;DHT22;4404;49.308;12.178;2024-01-30T01:54:47;11.60;65.50
8736;DHT22;4404;49.308;12.178;2024-01-30T01:56:49;11.60;65.50
8736;DHT22;4404;49.308;12.178;2024-01-30T01:58:51;11.60;65.60
8736;DHT22;4404;49.308;12.178;2024-01-30T02:00:57;11.60;65.60
8736;DHT22;4404;49.308;12.178;2024-01-30T02:03:01;11.70;65.60
8736;DHT22;4404;49.308;12.178;2024-01-30T02:05:05;11.60;65.60
8736;DHT22;4404;49.308;12.178;2024-01-30T02:07:06;11.60;65.60
8736;DHT22;4404;49.308;12.178;2024-01-30T02:09:09;11.60;65.60
8736;DHT22;4404;49.308;12.178;2024-01-30T02:11:11;11.60;65.50
8736;DHT22;4404;49.308;12.178;2024-01-30T02:13:13;11.60;65.40
8736;DHT22;4404;49.308;12.178;2024-01-30T02:15:16;11.60;65.50
8736;DHT22;4404;49.308;12.178;2024-01-30T02:17:18;11.60;65.50
8736;DHT22;4404;49.308;12.178;2024-01-30T02:19:21;11.60;65.50
8736;DHT22;4404;49.308;12.178;2024-01-30T02:21:24;11.60;65.50
8736;DHT22;4404;49.308;12.178;2024-01-30T02:23:27;11.60;66.10
8736;DHT22;4404;49.308;12.178;2024-01-30T02:25:32;11.50;65.30
8736;DHT22;4404;49.308;12.178;2024-01-30T02:27:34;11.60;65.50
8736;DHT22;4404;49.308;12.178;2024-01-30T02:29:36;11.50;66.00
8736;DHT22;4404;49.308;12.178;2024-01-30T02:31:38;11.50;65.20
8736;DHT22;4404;49.308;12.178;2024-01-30T02:33:40;11.60;65.40
8736;DHT22;4404;49.308;12.178;2024-01-30T02:35:42;11.60;65.40
8736;DHT22;4404;49.308;12.178;2024-01-30T02:37:46;11.50;65.30
8736;DHT22;4404;49.308;12.178;2024-01-30T02:39:48;11.50;65.20
8736;DHT22;4404;49.308;12.178;2024-01-30T02:41:50;11.50;65.20
8736;DHT22;4404;49.308;12.178;2024-01-30T02:43:52;11.50;65.30
8736;DHT22;4404;49.308;12.178;2024-01-30T02:45:54;11.50;65.20
8736;DHT22;4404;49.308;12.178;2024-01-30T02:47:56;11.50;65.20
8736;DHT22;4404;49.308;12.178;2024-01-30T02:49:57;11.50;65.20
8736;DHT22;4404;49.308;12.178;2024-01-30T02:51:59;11.50;65.20
8736;DHT22;4404;49.308;12.178;2024-01-30T02:54:02;11.50;65.10
8736;DHT22;4404;49.308;12.178;2024-01-30T02:56:05;11.50;65.10
8736;DHT22;4404;49.308;12.178;2024-01-30T02:58:10;11.50;65.20
8736;DHT22;4404;49.308;12.178;2024-01-30T03:00:13;11.50;65.20
8736;DHT22;4404;49.308;12.178;2024-01-30T03:02:15;11.50;65.10
8736;DHT22;4404;49.308;12.178;2024-01-30T03:04:17;11.50;65.10
8736;DHT22;4404;49.308;12.178;2024-01-30T03:06:19;11.50;65.10
8736;DHT22;4404;49.308;12.178;2024-01-30T03:08:22;11.50;65.10
8736;DHT22;4404;49.308;12.178;2024-01-30T03:10:25;11.50;65.10
8736;DHT22;4404;49.308;12.178;2024-01-30T03:12:26;11.60;65.20
8736;DHT22;4404;49.308;12.178;2024-01-30T03:14:30;11.50;65.10
8736;DHT22;4404;49.308;12.178;2024-01-30T03:16:32;11.60;65.30
8736;DHT22;4404;49.308;12.178;2024-01-30T03:18:34;11.50;65.10
8736;DHT22;4404;49.308;12.178;2024-01-30T03:20:36;11.50;65.10
8736;DHT22;4404;49.308;12.178;2024-01-30T03:22:38;11.50;65.00
8736;DHT22;4404;49.308;12.178;2024-01-30T03:24:40;11.50;65.00
8736;DHT22;4404;49.308;12.178;2024-01-30T03:26:43;11.60;65.20
8736;DHT22;4404;49.308;12.178;2024-01-30T03:28:45;11.50;65.10
8736;DHT22;4404;49.308;12.178;2024-01-30T03:30:47;11.50;65.00
8736;DHT22;4404;49.308;12.178;2024-01-30T03:32:49;11.50;65.10
8736;DHT22;4404;49.308;12.178;2024-01-30T03:34:51;11.50;65.00
8736;DHT22;4404;49.308;12.178;2024-01-30T03:36:53;11.50;65.00
8736;DHT22;4404;49.308;12.178;2024-01-30T03:38:55;11.50;65.00
8736;DHT22;4404;49.308;12.178;2024-01-30T03:40:57;11.40;64.90
8736;DHT22;4404;49.308;12.178;2024-01-30T03:43:00;11.50;65.00
8736;DHT22;4404;49.308;12.178;2024-01-30T03:45:03;11.50;65.00
8736;DHT22;4404;49.308;12.178;2024-01-30T03:47:06;11.50;65.00
8736;DHT22;4404;49.308;12.178;2024-01-30T03:49:09;11.50;64.90
8736;DHT22;4404;49.308;12.178;2024-01-30T03:51:11;11.40;64.90
8736;DHT22;4404;49.308;12.178;2024-01-30T03:53:15;11.50;65.00
8736;DHT22;4404;49.308;12.178;2024-01-30T03:55:17;11.50;65.00
8736;DHT22;4404;49.308;12.178;2024-01-30T03:57:19;11.50;64.90
8736;DHT22;4404;49.308;12.178;2024-01-30T03:59:23;11.50;64.90
8736;DHT22;4404;49.308;12.178;2024-01-30T04:01:25;11.50;64.90
8736;DHT22;4404;49.308;12.178;2024-01-30T04:03:27;11.40;64.80
8736;DHT22;4404;49.308;12.178;2024-01-30T04:05:29;11.50;64.80
8736;DHT22;4404;49.308;12.178;2024-01-30T04:07:31;11.40;64.80
8736;DHT22;4404;49.308;12.178;2024-01-30T04:09:33;11.40;64.80
8736;DHT22;4404;49.308;12.178;2024-01-30T04:11:35;11.40;64.70
8736;DHT22;4404;49.308;12.178;2024-01-30T04:13:37;11.50;64.80
8736;DHT22;4404;49.308;12.178;2024-01-30T04:15:39;11.50;64.80
8736;DHT22;4404;49.308;12.178;2024-01-30T04:17:41;11.40;64.70
8736;DHT22;4404;49.308;12.178;2024-01-30T04:19:43;11.40;64.70
8736;DHT22;4404;49.308;12.178;2024-01-30T04:21:45;11.40;64.70
8736;DHT22;4404;49.308;12.178;2024-01-30T04:23:47;11.40;64.60
8736;DHT22;4404;49.308;12.178;2024-01-30T04:25:49;11.40;64.70
8736;DHT22;4404;49.308;12.178;2024-01-30T04:27:51;11.40;64.60
8736;DHT22;4404;49.308;12.178;2024-01-30T04:29:53;11.40;64.70
8736;DHT22;4404;49.308;12.178;2024-01-30T04:31:57;11.40;64.70
8736;DHT22;4404;49.308;12.178;2024-01-30T04:33:59;11.40;65.30
8736;DHT22;4404;49.308;12.178;2024-01-30T04:36:00;11.40;64.60
8736;DHT22;4404;49.308;12.178;2024-01-30T04:38:01;11.40;64.60
8736;DHT22;4404;49.308;12.178;2024-01-30T04:40:04;11.40;64.60
8736;DHT22;4404;49.308;12.178;2024-01-30T04:42:07;11.40;64.60
8736;DHT22;4404;49.308;12.178;2024-01-30T04:44:09;11.40;64.60
8736;DHT22;4404;49.308;12.178;2024-01-30T04:46:11;11.40;64.60
8736;DHT22;4404;49.308;12.178;2024-01-30T04:48:14;11.40;64.60
8736;DHT22;4404;49.308;12.178;2024-01-30T04:50:16;11.40;64.70
8736;DHT22;4404;49.308;12.178;2024-01-30T04:52:19;11.50;65.40
8736;DHT22;4404;49.308;12.178;2024-01-30T04:54:21;11.40;64.60
8736;DHT22;4404;49.308;12.178;2024-01-30T04:56:22;11.40;64.70
8736;DHT22;4404;49.308;12.178;2024-01-30T04:58:24;11.40;64.70
8736;DHT22;4404;49.308;12.178;2024-01-30T05:00:26;11.40;64.50
8736;DHT22;4404;49.308;12.178;2024-01-30T05:02:28;11.40;64.70
8736;DHT22;4404;49.308;12.178;2024-01-30T05:04:31;11.20;64.40
8736;DHT22;4404;49.308;12.178;2024-01-30T05:06:32;11.40;64.60
8736;DHT22;4404;49.308;12.178;2024-01-30T05:08:34;11.40;64.70
8736;DHT22;4404;49.308;12.178;2024-01-30T05:10:37;11.40;64.70
8736;DHT22;4404;49.308;12.178;2024-01-30T05:12:39;11.40;64.70
8736;DHT22;4404;49.308;12.178;2024-01-30T05:14:41;11.40;64.60
8736;DHT22;4404;49.308;12.178;2024-01-30T05:16:42;11.40;64.70
8736;DHT22;4404;49.308;12.178;2024-01-30T05:18:47;11.40;64.70
8736;DHT22;4404;49.308;12.178;2024-01-30T05:20:50;11.40;64.70
8736;DHT22;4404;49.308;12.178;2024-01-30T05:22:52;11.40;64.70
8736;DHT22;4404;49.308;12.178;2024-01-30T05:24:54;11.40;64.60
8736;DHT22;4404;49.308;12.178;2024-01-30T05:26:56;11.40;64.70
8736;DHT22;4404;49.308;12.178;2024-01-30T05:28:58;11.40;64.60
8736;DHT22;4404;49.308;12.178;2024-01-30T05:31:00;11.40;64.70
8736;DHT22;4404;49.308;12.178;2024-01-30T05:33:02;11.40;64.70
8736;DHT22;4404;49.308;12.178;2024-01-30T05:35:04;11.40;64.70
8736;DHT22;4404;49.308;12.178;2024-01-30T05:37:09;11.40;64.60
8736;DHT22;4404;49.308;12.178;2024-01-30T05:39:14;11.40;64.70
8736;DHT22;4404;49.308;12.178;2024-01-30T05:41:16;11.40;64.70
8736;DHT22;4404;49.308;12.178;2024-01-30T05:43:18;11.40;64.80
8736;DHT22;4404;49.308;12.178;2024-01-30T05:45:20;11.30;64.70
8736;DHT22;4404;49.308;12.178;2024-01-30T05:47:23;11.40;64.80
8736;DHT22;4404;49.308;12.178;2024-01-30T05:49:25;11.40;64.80
8736;DHT22;4404;49.308;12.178;2024-01-30T05:51:27;11.30;64.80
8736;DHT22;4404;49.308;12.178;2024-01-30T05:53:31;11.30;64.70
8736;DHT22;4404;49.308;12.178;2024-01-30T05:55:33;12.00;65.40
8736;DHT22;4404;49.308;12.178;2024-01-30T05:57:33;11.30;64.80
8736;DHT22;4404;49.308;12.178;2024-01-30T05:59:35;11.40;64.80
8736;DHT22;4404;49.308;12.178;2024-01-30T06:01:36;11.30;64.80
8736;DHT22;4404;49.308;12.178;2024-01-30T06:03:38;11.40;64.90
8736;DHT22;4404;49.308;12.178;2024-01-30T06:05:41;11.40;64.90
8736;DHT22;4404;49.308;12.178;2024-01-30T06:07:43;11.30;64.80
8736;DHT22;4404;49.308;12.178;2024-01-30T06:09:46;11.30;64.80
8736;DHT22;4404;49.308;12.178;2024-01-30T06:11:49;11.40;64.90
8736;DHT22;4404;49.308;12.178;2024-01-30T06:13:50;11.30;64.80
8736;DHT22;4404;49.308;12.178;2024-01-30T06:15:52;11.40;64.90
8736;DHT22;4404;49.308;12.178;2024-01-30T06:17:54;11.40;65.00
8736;DHT22;4404;49.308;12.178;2024-01-30T06:19:56;11.40;64.80
8736;DHT22;4404;49.308;12.178;2024-01-30T06:21:58;11.30;64.70
8736;DHT22;4404;49.308;12.178;2024-01-30T06:23:59;11.30;64.80
8736;DHT22;4404;49.308;12.178;2024-01-30T06:26:02;11.30;64.70
8736;DHT22;4404;49.308;12.178;2024-01-30T06:28:05;11.30;64.80
8736;DHT22;4404;49.308;12.178;2024-01-30T06:30:07;11.30;64.80
8736;DHT22;4404;49.308;12.178;2024-01-30T06:32:10;11.30;64.80
8736;DHT22;4404;49.308;12.178;2024-01-30T06:34:12;11.40;64.80
8736;DHT22;4404;49.308;12.178;2024-01-30T06:36:14;11.30;64.80
8736;DHT22;4404;49.308;12.178;2024-01-30T06:38:16;11.30;64.80
8736;DHT22;4404;49.308;12.178;2024-01-30T06:40:18;11.30;64.80
8736;DHT22;4404;49.308;12.178;2024-01-30T06:42:21;11.30;65.40
8736;DHT22;4404;49.308;12.178;2024-01-30T06:44:23;11.40;64.90
8736;DHT22;4404;49.308;12.178;2024-01-30T06:46:25;11.40;64.70
8736;DHT22;4404;49.308;12.178;2024-01-30T06:48:28;11.30;64.70
8736;DHT22;4404;49.308;12.178;2024-01-30T06:50:30;11.30;64.60
8736;DHT22;4404;49.308;12.178;2024-01-30T06:52:32;11.30;64.60
8736;DHT22;4404;49.308;12.178;2024-01-30T06:54:34;11.30;64.60
8736;DHT22;4404;49.308;12.178;2024-01-30T06:56:37;11.30;64.60
8736;DHT22;4404;49.308;12.178;2024-01-30T06:58:40;11.30;64.50
8736;DHT22;4404;49.308;12.178;2024-01-30T07:00:42;11.30;64.50
8736;DHT22;4404;49.308;12.178;2024-01-30T07:02:44;11.30;64.60
8736;DHT22;4404;49.308;12.178;2024-01-30T07:04:46;11.30;64.50
8736;DHT22;4404;49.308;12.178;2024-01-30T07:06:49;11.30;64.50
8736;DHT22;4404;49.308;12.178;2024-01-30T07:08:53;11.30;64.40
8736;DHT22;4404;49.308;12.178;2024-01-30T07:10:55;11.30;64.40
8736;DHT22;4404;49.308;12.178;2024-01-30T07:12:56;11.40;64.40
8736;DHT22;4404;49.308;12.178;2024-01-30T07:15:00;11.30;64.30
8736;DHT22;4404;49.308;12.178;2024-01-30T07:17:01;11.30;64.40
8736;DHT22;4404;49.308;12.178;2024-01-30T07:19:04;11.30;64.30
8736;DHT22;4404;49.308;12.178;2024-01-30T07:21:06;11.30;64.20
8736;DHT22;4404;49.308;12.178;2024-01-30T07:23:07;11.30;64.40
8736;DHT22;4404;49.308;12.178;2024-01-30T07:25:12;11.30;64.30
8736;DHT22;4404;49.308;12.178;2024-01-30T07:27:14;11.30;64.40
8736;DHT22;4404;49.308;12.178;2024-01-30T07:29:18;11.30;64.30
8736;DHT22;4404;49.308;12.178;2024-01-30T07:31:21;11.30;64.30
8736;DHT22;4404;49.308;12.178;2024-01-30T07:33:24;11.30;64.30
8736;DHT22;4404;49.308;12.178;2024-01-30T07:35:26;11.30;64.40
8736;DHT22;4404;49.308;12.178;2024-01-30T07:37:28;11.30;64.30
8736;DHT22;4404;49.308;12.178;2024-01-30T07:39:30;11.30;64.30
8736;DHT22;4404;49.308;12.178;2024-01-30T07:41:32;11.30;64.40
8736;DHT22;4404;49.308;12.178;2024-01-30T07:43:34;11.30;64.30
8736;DHT22;4404;49.308;12.178;2024-01-30T07:45:36;11.30;64.30
8736;DHT22;4404;49.308;12.178;2024-01-30T07:47:40;11.30;64.30
8736;DHT22;4404;49.308;12.178;2024-01-30T07:49:42;11.30;64.40
8736;DHT22;4404;49.308;12.178;2024-01-30T07:51:43;11.30;64.40
8736;DHT22;4404;49.308;12.178;2024-01-30T07:53:45;11.30;64.40
8736;DHT22;4404;49.308;12.178;2024-01-30T07:55:46;11.30;64.30
8736;DHT22;4404;49.308;12.178;2024-01-30T07:57:48;11.30;64.40
8736;DHT22;4404;49.308;12.178;2024-01-30T07:59:50;11.30;64.50
8736;DHT22;4404;49.308;12.178;2024-01-30T08:01:52;11.30;64.50
8736;DHT22;4404;49.308;12.178;2024-01-30T08:03:56;11.30;64.50
8736;DHT22;4404;49.308;12.178;2024-01-30T08:05:57;11.30;64.60
8736;DHT22;4404;49.308;12.178;2024-01-30T08:07:59;11.40;64.70
8736;DHT22;4404;49.308;12.178;2024-01-30T08:10:01;11.40;65.00
8736;DHT22;4404;49.308;12.178;2024-01-30T08:12:04;11.40;65.00
8736;DHT22;4404;49.308;12.178;2024-01-30T08:14:06;11.40;65.00
8736;DHT22;4404;49.308;12.178;2024-01-30T08:16:08;11.40;64.90
8736;DHT22;4404;49.308;12.178;2024-01-30T08:18:10;11.40;65.00
8736;DHT22;4404;49.308;12.178;2024-01-30T08:20:14;11.40;64.90
8736;DHT22;4404;49.308;12.178;2024-01-30T08:22:17;11.40;64.90
8736;DHT22;4404;49.308;12.178;2024-01-30T08:24:19;11.40;65.00
8736;DHT22;4404;49.308;12.178;2024-01-30T08:26:21;11.40;65.00
8736;DHT22;4404;49.308;12.178;2024-01-30T08:28:23;11.40;65.00
8736;DHT22;4404;49.308;12.178;2024-01-30T08:30:25;11.40;65.00
8736;DHT22;4404;49.308;12.178;2024-01-30T08:32:27;11.40;64.90
8736;DHT22;4404;49.308;12.178;2024-01-30T08:34:28;11.40;64.90
8736;DHT22;4404;49.308;12.178;2024-01-30T08:36:31;11.40;64.90
8736;DHT22;4404;49.308;12.178;2024-01-30T08:38:32;11.50;65.00
8736;DHT22;4404;49.308;12.178;2024-01-30T08:40:34;11.40;64.90
8736;DHT22;4404;49.308;12.178;2024-01-30T08:42:36;11.40;65.00
8736;DHT22;4404;49.308;12.178;2024-01-30T08:44:38;11.40;64.90
8736;DHT22;4404;49.308;12.178;2024-01-30T08:46:40;11.40;64.90
8736;DHT22;4404;49.308;12.178;2024-01-30T08:48:42;11.40;64.90
8736;DHT22;4404;49.308;12.178;2024-01-30T08:50:44;11.40;64.90
8736;DHT22;4404;49.308;12.178;2024-01-30T08:52:48;11.50;65.00
8736;DHT22;4404;49.308;12.178;2024-01-30T08:54:50;11.50;65.00
8736;DHT22;4404;49.308;12.178;2024-01-30T08:56:51;11.50;65.00
8736;DHT22;4404;49.308;12.178;2024-01-30T08:58:53;11.50;65.10
8736;DHT22;4404;49.308;12.178;2024-01-30T09:00:56;11.50;65.10
8736;DHT22;4404;49.308;12.178;2024-01-30T09:02:57;11.50;65.10
8736;DHT22;4404;49.308;12.178;2024-01-30T09:04:59;11.50;65.10
8736;DHT22;4404;49.308;12.178;2024-01-30T09:07:02;11.50;65.10
8736;DHT22;4404;49.308;12.178;2024-01-30T09:09:07;11.50;65.10
8736;DHT22;4404;49.308;12.178;2024-01-30T09:11:10;11.50;65.10
8736;DHT22;4404;49.308;12.178;2024-01-30T09:13:13;11.60;65.30
8736;DHT22;4404;49.308;12.178;2024-01-30T09:15:15;11.60;65.30
8736;DHT22;4404;49.308;12.178;2024-01-30T09:17:17;11.60;65.20
8736;DHT22;4404;49.308;12.178;2024-01-30T09:19:18;11.60;65.20
8736;DHT22;4404;49.308;12.178;2024-01-30T09:21:20;11.60;65.20
8736;DHT22;4404;49.308;12.178;2024-01-30T09:23:22;11.60;65.20
8736;DHT22;4404;49.308;12.178;2024-01-30T09:25:25;11.60;65.20
8736;DHT22;4404;49.308;12.178;2024-01-30T09:27:27;11.60;65.10
8736;DHT22;4404;49.308;12.178;2024-01-30T09:29:29;11.70;65.20
8736;DHT22;4404;49.308;12.178;2024-01-30T09:31:31;11.70;65.20
8736;DHT22;4404;49.308;12.178;2024-01-30T09:33:33;11.70;65.10
8736;DHT22;4404;49.308;12.178;2024-01-30T09:35:34;11.80;65.20
8736;DHT22;4404;49.308;12.178;2024-01-30T09:37:36;11.80;65.30
8736;DHT22;4404;49.308;12.178;2024-01-30T09:39:39;11.80;65.20
8736;DHT22;4404;49.308;12.178;2024-01-30T09:41:45;11.90;65.20
8736;DHT22;4404;49.308;12.178;2024-01-30T09:43:50;11.90;65.20
8736;DHT22;4404;49.308;12.178;2024-01-30T09:45:54;11.90;65.20
8736;DHT22;4404;49.308;12.178;2024-01-30T09:47:59;11.90;65.10
8736;DHT22;4404;49.308;12.178;2024-01-30T09:50:01;12.20;65.40
8736;DHT22;4404;49.308;12.178;2024-01-30T09:52:07;12.00;65.20
8736;DHT22;4404;49.308;12.178;2024-01-30T09:54:10;12.00;65.30
8736;DHT22;4404;49.308;12.178;2024-01-30T09:56:16;12.00;65.30
8736;DHT22;4404;49.308;12.178;2024-01-30T09:58:25;12.00;65.20
8736;DHT22;4404;49.308;12.178;2024-01-30T10:00:27;12.00;65.20
8736;DHT22;4404;49.308;12.178;2024-01-30T10:02:32;12.10;65.20
8736;DHT22;4404;49.308;12.178;2024-01-30T10:04:33;12.00;65.10
8736;DHT22;4404;49.308;12.178;2024-01-30T10:06:35;12.10;65.20
8736;DHT22;4404;49.308;12.178;2024-01-30T10:08:37;12.20;65.30
8736;DHT22;4404;49.308;12.178;2024-01-30T10:10:39;12.20;65.30
8736;DHT22;4404;49.308;12.178;2024-01-30T10:12:41;12.20;65.50
8736;DHT22;4404;49.308;12.178;2024-01-30T10:14:44;12.30;65.60
8736;DHT22;4404;49.308;12.178;2024-01-30T10:16:46;12.30;65.60
8736;DHT22;4404;49.308;12.178;2024-01-30T10:18:49;12.30;65.60
8736;DHT22;4404;49.308;12.178;2024-01-30T10:20:51;12.70;66.00
8736;DHT22;4404;49.308;12.178;2024-01-30T10:22:55;12.40;65.70
8736;DHT22;4404;49.308;12.178;2024-01-30T10:24:57;12.50;65.80
8736;DHT22;4404;49.308;12.178;2024-01-30T10:27:02;12.40;65.50
8736;DHT22;4404;49.308;12.178;2024-01-30T10:29:04;12.50;65.60
8736;DHT22;4404;49.308;12.178;2024-01-30T10:31:08;12.50;65.60
8736;DHT22;4404;49.308;12.178;2024-01-30T10:33:09;12.60;65.70
8736;DHT22;4404;49.308;12.178;2024-01-30T10:35:12;12.60;65.90
8736;DHT22;4404;49.308;12.178;2024-01-30T10:37:15;12.60;65.90
8736;DHT22;4404;49.308;12.178;2024-01-30T10:39:18;12.60;65.90
8736;DHT22;4404;49.308;12.178;2024-01-30T10:41:26;12.60;66.00
8736;DHT22;4404;49.308;12.178;2024-01-30T10:43:31;12.70;66.30
8736;DHT22;4404;49.308;12.178;2024-01-30T10:45:35;12.70;66.40
8736;DHT22;4404;49.308;12.178;2024-01-30T10:47:46;12.70;66.30
8736;DHT22;4404;49.308;12.178;2024-01-30T10:49:51;12.80;66.50
8736;DHT22;4404;49.308;12.178;2024-01-30T10:51:54;12.80;66.30
8736;DHT22;4404;49.308;12.178;2024-01-30T10:53:56;12.80;66.40
8736;DHT22;4404;49.308;12.178;2024-01-30T10:55:59;12.80;66.10
8736;DHT22;4404;49.308;12.178;2024-01-30T10:58:01;12.80;66.00
8736;DHT22;4404;49.308;12.178;2024-01-30T11:00:06;12.80;65.90
8736;DHT22;4404;49.308;12.178;2024-01-30T11:02:11;12.90;66.10
8736;DHT22;4404;49.308;12.178;2024-01-30T11:04:15;12.90;66.10
8736;DHT22;4404;49.308;12.178;2024-01-30T11:06:17;12.90;66.10
8736;DHT22;4404;49.308;12.178;2024-01-30T11:08:23;12.90;66.00
8736;DHT22;4404;49.308;12.178;2024-01-30T11:10:26;13.00;66.20
8736;DHT22;4404;49.308;12.178;2024-01-30T11:12:29;13.00;66.10
8736;DHT22;4404;49.308;12.178;2024-01-30T11:14:33;13.00;66.30
8736;DHT22;4404;49.308;12.178;2024-01-30T11:16:35;13.00;66.00
8736;DHT22;4404;49.308;12.178;2024-01-30T11:18:37;13.10;66.10
8736;DHT22;4404;49.308;12.178;2024-01-30T11:20:47;13.10;66.30
8736;DHT22;4404;49.308;12.178;2024-01-30T11:22:51;13.20;66.30
8736;DHT22;4404;49.308;12.178;2024-01-30T11:24:55;13.20;66.20
8736;DHT22;4404;49.308;12.178;2024-01-30T11:26:57;13.20;66.20
8736;DHT22;4404;49.308;12.178;2024-01-30T11:29:03;13.30;66.30
8736;DHT22;4404;49.308;12.178;2024-01-30T11:31:06;13.30;66.20
8736;DHT22;4404;49.308;12.178;2024-01-30T11:33:09;13.30;66.30
8736;DHT22;4404;49.308;12.178;2024-01-30T11:35:12;13.40;66.40
8736;DHT22;4404;49.308;12.178;2024-01-30T11:37:16;13.40;66.40
8736;DHT22;4404;49.308;12.178;2024-01-30T11:39:21;13.40;66.60
8736;DHT22;4404;49.308;12.178;2024-01-30T11:41:25;13.40;66.40
8736;DHT22;4404;49.308;12.178;2024-01-30T11:43:27;13.50;66.60
8736;DHT22;4404;49.308;12.178;2024-01-30T11:45:29;13.50;66.40
8736;DHT22;4404;49.308;12.178;2024-01-30T11:47:31;13.50;66.40
8736;DHT22;4404;49.308;12.178;2024-01-30T11:49:35;13.60;66.50
8736;DHT22;4404;49.308;12.178;2024-01-30T11:51:38;13.60;66.50
8736;DHT22;4404;49.308;12.178;2024-01-30T11:53:41;13.60;66.40
8736;DHT22;4404;49.308;12.178;2024-01-30T11:55:49;13.60;66.50
8736;DHT22;4404;49.308;12.178;2024-01-30T11:57:55;13.60;66.50
8736;DHT22;4404;49.308;12.178;2024-01-30T11:59:56;13.60;66.50
8736;DHT22;4404;49.308;12.178;2024-01-30T12:01:58;13.60;66.50
8736;DHT22;4404;49.308;12.178;2024-01-30T12:03:59;13.60;66.50
8736;DHT22;4404;49.308;12.178;2024-01-30T12:06:03;13.60;66.60
8736;DHT22;4404;49.308;12.178;2024-01-30T12:08:05;13.70;66.70
8736;DHT22;4404;49.308;12.178;2024-01-30T12:10:10;13.60;66.50
8736;DHT22;4404;49.308;12.178;2024-01-30T12:12:14;13.70;66.60
8736;DHT22;4404;49.308;12.178;2024-01-30T12:14:17;13.70;66.50
8736;DHT22;4404;49.308;12.178;2024-01-30T12:16:20;13.90;66.70
8736;DHT22;4404;49.308;12.178;2024-01-30T12:18:25;13.70;66.60
8736;DHT22;4404;49.308;12.178;2024-01-30T12:20:27;13.70;66.50
8736;DHT22;4404;49.308;12.178;2024-01-30T12:22:30;13.70;66.60
8736;DHT22;4404;49.308;12.178;2024-01-30T12:24:32;13.70;66.60
8736;DHT22;4404;49.308;12.178;2024-01-30T12:26:36;13.70;66.70
8736;DHT22;4404;49.308;12.178;2024-01-30T12:28:47;13.70;66.80
8736;DHT22;4404;49.308;12.178;2024-01-30T12:30:50;13.70;66.70
8736;DHT22;4404;49.308;12.178;2024-01-30T12:32:52;13.70;66.80
8736;DHT22;4404;49.308;12.178;2024-01-30T12:34:57;13.70;66.90
8736;DHT22;4404;49.308;12.178;2024-01-30T12:36:58;13.70;66.80
8736;DHT22;4404;49.308;12.178;2024-01-30T12:39:02;13.70;66.80
8736;DHT22;4404;49.308;12.178;2024-01-30T12:41:07;13.70;67.00
8736;DHT22;4404;49.308;12.178;2024-01-30T12:43:11;13.80;67.10
8736;DHT22;4404;49.308;12.178;2024-01-30T12:45:15;13.80;67.10
8736;DHT22;4404;49.308;12.178;2024-01-30T12:47:21;13.70;66.80
8736;DHT22;4404;49.308;12.178;2024-01-30T12:49:23;13.70;66.70
8736;DHT22;4404;49.308;12.178;2024-01-30T12:51:25;13.80;66.80
8736;DHT22;4404;49.308;12.178;2024-01-30T12:53:28;13.80;66.70
8736;DHT22;4404;49.308;12.178;2024-01-30T12:55:30;13.90;67.00
8736;DHT22;4404;49.308;12.178;2024-01-30T12:57:32;13.80;66.80
8736;DHT22;4404;49.308;12.178;2024-01-30T12:59:39;13.80;66.80
8736;DHT22;4404;49.308;12.178;2024-01-30T13:01:41;13.80;66.90
8736;DHT22;4404;49.308;12.178;2024-01-30T13:03:43;13.80;66.70
8736;DHT22;4404;49.308;12.178;2024-01-30T13:05:49;13.70;67.00